sensor_id;sensor_type;location;lat;lon;timestamp;P1;durP1;ratioP1;P2;durP2;ratioP2
9559;SDS011;4818;50.860;4.648;2023-06-22T00:01:56;4.47;;;2.67;;
9559;SDS011;4818;50.860;4.648;2023-06-22T00:04:22;2.92;;;2.30;;
9559;SDS011;4818;50.860;4.648;2023-06-22T00:06:48;2.95;;;2.30;;
9559;SDS011;4818;50.860;4.648;2023-06-22T00:09:14;4.13;;;2.70;;
9559;SDS011;4818;50.860;4.648;2023-06-22T00:11:40;7.28;;;3.08;;
9559;SDS011;4818;50.860;4.648;2023-06-22T00:14:07;4.38;;;2.47;;
9559;SDS011;4818;50.860;4.648;2023-06-22T00:16:33;4.22;;;2.70;;
9559;SDS011;4818;50.860;4.648;2023-06-22T00:18:59;5.63;;;2.22;;
9559;SDS011;4818;50.860;4.648;2023-06-22T00:21:27;3.97;;;2.70;;
9559;SDS011;4818;50.860;4.648;2023-06-22T00:23:53;3.05;;;1.83;;
9559;SDS011;4818;50.860;4.648;2023-06-22T00:26:20;6.70;;;1.70;;
9559;SDS011;4818;50.860;4.648;2023-06-22T00:28:47;3.55;;;1.40;;
9559;SDS011;4818;50.860;4.648;2023-06-22T00:31:13;4.65;;;1.95;;
9559;SDS011;4818;50.860;4.648;2023-06-22T00:33:39;2.67;;;1.45;;
9559;SDS011;4818;50.860;4.648;2023-06-22T00:36:06;6.07;;;2.15;;
9559;SDS011;4818;50.860;4.648;2023-06-22T00:38:33;3.47;;;1.75;;
9559;SDS011;4818;50.860;4.648;2023-06-22T00:40:59;3.65;;;1.83;;
9559;SDS011;4818;50.860;4.648;2023-06-22T00:43:25;4.50;;;2.58;;
9559;SDS011;4818;50.860;4.648;2023-06-22T00:45:52;3.10;;;2.28;;
9559;SDS011;4818;50.860;4.648;2023-06-22T00:48:18;9.25;;;2.10;;
9559;SDS011;4818;50.860;4.648;2023-06-22T00:50:44;3.28;;;2.20;;
9559;SDS011;4818;50.860;4.648;2023-06-22T00:53:11;3.83;;;2.50;;
9559;SDS011;4818;50.860;4.648;2023-06-22T00:55:40;3.30;;;2.30;;
9559;SDS011;4818;50.860;4.648;2023-06-22T00:58:12;3.05;;;2.35;;
9559;SDS011;4818;50.860;4.648;2023-06-22T01:00:39;3.92;;;3.13;;
9559;SDS011;4818;50.860;4.648;2023-06-22T01:03:06;3.50;;;2.58;;
9559;SDS011;4818;50.860;4.648;2023-06-22T01:05:37;3.28;;;2.25;;
9559;SDS011;4818;50.860;4.648;2023-06-22T01:08:05;4.72;;;2.13;;
9559;SDS011;4818;50.860;4.648;2023-06-22T01:10:51;5.50;;;2.40;;
9559;SDS011;4818;50.860;4.648;2023-06-22T01:13:24;4.03;;;1.80;;
9559;SDS011;4818;50.860;4.648;2023-06-22T01:15:57;6.03;;;1.85;;
9559;SDS011;4818;50.860;4.648;2023-06-22T01:18:26;2.92;;;1.60;;
9559;SDS011;4818;50.860;4.648;2023-06-22T01:20:54;5.65;;;1.98;;
9559;SDS011;4818;50.860;4.648;2023-06-22T01:28:50;2.78;;;2.08;;
9559;SDS011;4818;50.860;4.648;2023-06-22T01:31:18;5.43;;;2.03;;
9559;SDS011;4818;50.860;4.648;2023-06-22T01:33:50;4.65;;;1.92;;
9559;SDS011;4818;50.860;4.648;2023-06-22T01:36:17;3.83;;;2.28;;
9559;SDS011;4818;50.860;4.648;2023-06-22T01:38:44;5.32;;;2.03;;
9559;SDS011;4818;50.860;4.648;2023-06-22T01:41:11;3.38;;;2.42;;
9559;SDS011;4818;50.860;4.648;2023-06-22T01:43:37;10.43;;;3.85;;
9559;SDS011;4818;50.860;4.648;2023-06-22T01:46:04;5.32;;;3.80;;
9559;SDS011;4818;50.860;4.648;2023-06-22T01:48:30;5.07;;;2.95;;
9559;SDS011;4818;50.860;4.648;2023-06-22T01:50:57;5.57;;;2.15;;
9559;SDS011;4818;50.860;4.648;2023-06-22T01:53:24;3.42;;;2.35;;
9559;SDS011;4818;50.860;4.648;2023-06-22T01:55:50;4.20;;;2.45;;
9559;SDS011;4818;50.860;4.648;2023-06-22T01:58:16;7.00;;;2.60;;
9559;SDS011;4818;50.860;4.648;2023-06-22T02:00:44;4.97;;;2.47;;
9559;SDS011;4818;50.860;4.648;2023-06-22T02:03:14;5.10;;;2.70;;
9559;SDS011;4818;50.860;4.648;2023-06-22T02:05:44;3.75;;;2.35;;
9559;SDS011;4818;50.860;4.648;2023-06-22T02:08:13;4.65;;;2.88;;
9559;SDS011;4818;50.860;4.648;2023-06-22T02:10:43;7.22;;;3.17;;
9559;SDS011;4818;50.860;4.648;2023-06-22T02:13:09;6.32;;;3.10;;
9559;SDS011;4818;50.860;4.648;2023-06-22T02:15:36;3.88;;;2.88;;
9559;SDS011;4818;50.860;4.648;2023-06-22T02:18:02;4.85;;;2.80;;
9559;SDS011;4818;50.860;4.648;2023-06-22T02:20:29;4.93;;;2.95;;
9559;SDS011;4818;50.860;4.648;2023-06-22T02:22:55;4.85;;;3.05;;
9559;SDS011;4818;50.860;4.648;2023-06-22T02:25:21;6.10;;;3.40;;
9559;SDS011;4818;50.860;4.648;2023-06-22T02:27:47;9.90;;;3.58;;
9559;SDS011;4818;50.860;4.648;2023-06-22T02:30:15;6.05;;;2.47;;
9559;SDS011;4818;50.860;4.648;2023-06-22T02:32:41;4.95;;;3.15;;
9559;SDS011;4818;50.860;4.648;2023-06-22T02:35:08;4.00;;;2.58;;
9559;SDS011;4818;50.860;4.648;2023-06-22T02:37:35;4.80;;;2.78;;
9559;SDS011;4818;50.860;4.648;2023-06-22T02:40:07;7.00;;;4.43;;
9559;SDS011;4818;50.860;4.648;2023-06-22T02:42:37;4.95;;;4.45;;
9559;SDS011;4818;50.860;4.648;2023-06-22T02:45:03;5.50;;;4.15;;
9559;SDS011;4818;50.860;4.648;2023-06-22T02:47:29;5.90;;;3.88;;
9559;SDS011;4818;50.860;4.648;2023-06-22T02:49:56;7.10;;;4.72;;
9559;SDS011;4818;50.860;4.648;2023-06-22T02:52:22;5.72;;;4.00;;
9559;SDS011;4818;50.860;4.648;2023-06-22T02:54:48;6.15;;;4.85;;
9559;SDS011;4818;50.860;4.648;2023-06-22T02:57:15;5.68;;;4.13;;
9559;SDS011;4818;50.860;4.648;2023-06-22T02:59:41;8.75;;;4.63;;
9559;SDS011;4818;50.860;4.648;2023-06-22T03:02:08;8.55;;;5.45;;
9559;SDS011;4818;50.860;4.648;2023-06-22T03:04:34;8.32;;;4.32;;
9559;SDS011;4818;50.860;4.648;2023-06-22T03:07:01;7.93;;;4.95;;
9559;SDS011;4818;50.860;4.648;2023-06-22T03:09:27;7.55;;;4.07;;
9559;SDS011;4818;50.860;4.648;2023-06-22T03:11:54;5.90;;;4.40;;
9559;SDS011;4818;50.860;4.648;2023-06-22T03:14:20;6.78;;;4.00;;
9559;SDS011;4818;50.860;4.648;2023-06-22T03:16:46;8.80;;;4.57;;
9559;SDS011;4818;50.860;4.648;2023-06-22T03:19:13;6.40;;;4.53;;
9559;SDS011;4818;50.860;4.648;2023-06-22T03:21:39;6.57;;;4.35;;
9559;SDS011;4818;50.860;4.648;2023-06-22T03:24:06;5.57;;;4.05;;
9559;SDS011;4818;50.860;4.648;2023-06-22T03:26:32;5.28;;;4.30;;
9559;SDS011;4818;50.860;4.648;2023-06-22T03:28:59;7.25;;;3.88;;
9559;SDS011;4818;50.860;4.648;2023-06-22T03:31:26;5.15;;;3.50;;
9559;SDS011;4818;50.860;4.648;2023-06-22T03:33:52;7.88;;;4.32;;
9559;SDS011;4818;50.860;4.648;2023-06-22T03:36:18;8.75;;;4.78;;
9559;SDS011;4818;50.860;4.648;2023-06-22T03:38:45;6.38;;;4.72;;
9559;SDS011;4818;50.860;4.648;2023-06-22T03:41:12;9.50;;;5.50;;
9559;SDS011;4818;50.860;4.648;2023-06-22T03:43:38;10.75;;;4.70;;
9559;SDS011;4818;50.860;4.648;2023-06-22T03:46:04;7.00;;;4.57;;
9559;SDS011;4818;50.860;4.648;2023-06-22T03:48:31;6.22;;;4.07;;
9559;SDS011;4818;50.860;4.648;2023-06-22T03:50:58;7.00;;;5.63;;
9559;SDS011;4818;50.860;4.648;2023-06-22T03:53:24;6.22;;;4.35;;
9559;SDS011;4818;50.860;4.648;2023-06-22T03:55:51;7.07;;;4.65;;
9559;SDS011;4818;50.860;4.648;2023-06-22T03:58:18;6.00;;;4.70;;
9559;SDS011;4818;50.860;4.648;2023-06-22T04:00:45;8.02;;;5.60;;
9559;SDS011;4818;50.860;4.648;2023-06-22T04:03:12;8.40;;;5.43;;
9559;SDS011;4818;50.860;4.648;2023-06-22T04:05:38;7.15;;;4.15;;
9559;SDS011;4818;50.860;4.648;2023-06-22T04:08:05;9.10;;;5.38;;
9559;SDS011;4818;50.860;4.648;2023-06-22T04:10:31;7.85;;;5.00;;
9559;SDS011;4818;50.860;4.648;2023-06-22T04:12:57;8.43;;;5.60;;
9559;SDS011;4818;50.860;4.648;2023-06-22T04:15:24;10.30;;;5.75;;
9559;SDS011;4818;50.860;4.648;2023-06-22T04:17:50;8.10;;;5.13;;
9559;SDS011;4818;50.860;4.648;2023-06-22T04:20:16;6.88;;;5.20;;
9559;SDS011;4818;50.860;4.648;2023-06-22T04:22:42;11.40;;;5.63;;
9559;SDS011;4818;50.860;4.648;2023-06-22T04:25:10;8.40;;;5.72;;
9559;SDS011;4818;50.860;4.648;2023-06-22T04:27:36;9.13;;;6.28;;
9559;SDS011;4818;50.860;4.648;2023-06-22T04:30:05;11.30;;;6.00;;
9559;SDS011;4818;50.860;4.648;2023-06-22T04:32:33;8.77;;;3.88;;
9559;SDS011;4818;50.860;4.648;2023-06-22T04:35:01;4.68;;;3.70;;
9559;SDS011;4818;50.860;4.648;2023-06-22T04:37:29;7.45;;;3.38;;
9559;SDS011;4818;50.860;4.648;2023-06-22T04:39:56;7.72;;;3.97;;
9559;SDS011;4818;50.860;4.648;2023-06-22T04:42:22;8.57;;;5.18;;
9559;SDS011;4818;50.860;4.648;2023-06-22T04:44:48;8.32;;;4.00;;
9559;SDS011;4818;50.860;4.648;2023-06-22T04:47:14;10.60;;;4.90;;
9559;SDS011;4818;50.860;4.648;2023-06-22T04:49:40;8.32;;;4.90;;
9559;SDS011;4818;50.860;4.648;2023-06-22T04:52:09;9.38;;;4.55;;
9559;SDS011;4818;50.860;4.648;2023-06-22T04:54:35;8.60;;;4.47;;
9559;SDS011;4818;50.860;4.648;2023-06-22T04:57:03;8.52;;;5.03;;
9559;SDS011;4818;50.860;4.648;2023-06-22T04:59:29;10.27;;;5.05;;
9559;SDS011;4818;50.860;4.648;2023-06-22T05:02:00;8.48;;;4.53;;
9559;SDS011;4818;50.860;4.648;2023-06-22T05:04:27;8.07;;;4.97;;
9559;SDS011;4818;50.860;4.648;2023-06-22T05:06:56;7.88;;;5.70;;
9559;SDS011;4818;50.860;4.648;2023-06-22T05:09:22;10.32;;;5.22;;
9559;SDS011;4818;50.860;4.648;2023-06-22T05:11:50;11.18;;;5.20;;
9559;SDS011;4818;50.860;4.648;2023-06-22T05:14:16;7.00;;;4.80;;
9559;SDS011;4818;50.860;4.648;2023-06-22T05:16:43;8.57;;;4.47;;
9559;SDS011;4818;50.860;4.648;2023-06-22T05:19:09;8.25;;;6.05;;
9559;SDS011;4818;50.860;4.648;2023-06-22T05:21:35;8.90;;;6.05;;
9559;SDS011;4818;50.860;4.648;2023-06-22T05:24:02;8.38;;;5.70;;
9559;SDS011;4818;50.860;4.648;2023-06-22T05:26:32;8.82;;;6.05;;
9559;SDS011;4818;50.860;4.648;2023-06-22T05:28:58;13.32;;;6.97;;
9559;SDS011;4818;50.860;4.648;2023-06-22T05:31:25;8.70;;;6.43;;
9559;SDS011;4818;50.860;4.648;2023-06-22T05:33:52;11.02;;;6.15;;
9559;SDS011;4818;50.860;4.648;2023-06-22T05:36:19;7.18;;;5.80;;
9559;SDS011;4818;50.860;4.648;2023-06-22T05:38:46;9.25;;;6.32;;
9559;SDS011;4818;50.860;4.648;2023-06-22T05:41:13;11.75;;;7.13;;
9559;SDS011;4818;50.860;4.648;2023-06-22T05:43:39;13.30;;;7.05;;
9559;SDS011;4818;50.860;4.648;2023-06-22T05:46:05;9.80;;;6.80;;
9559;SDS011;4818;50.860;4.648;2023-06-22T05:48:31;13.25;;;5.97;;
9559;SDS011;4818;50.860;4.648;2023-06-22T05:50:58;12.60;;;5.93;;
9559;SDS011;4818;50.860;4.648;2023-06-22T05:53:24;10.63;;;6.78;;
9559;SDS011;4818;50.860;4.648;2023-06-22T05:55:50;11.13;;;6.85;;
9559;SDS011;4818;50.860;4.648;2023-06-22T05:58:16;9.80;;;6.72;;
9559;SDS011;4818;50.860;4.648;2023-06-22T06:00:43;10.25;;;6.82;;
9559;SDS011;4818;50.860;4.648;2023-06-22T06:03:09;12.32;;;7.38;;
9559;SDS011;4818;50.860;4.648;2023-06-22T06:05:36;11.07;;;6.45;;
9559;SDS011;4818;50.860;4.648;2023-06-22T06:08:04;11.32;;;7.82;;
9559;SDS011;4818;50.860;4.648;2023-06-22T06:10:31;10.07;;;6.63;;
9559;SDS011;4818;50.860;4.648;2023-06-22T06:12:57;10.30;;;7.28;;
9559;SDS011;4818;50.860;4.648;2023-06-22T06:15:23;12.10;;;7.18;;
9559;SDS011;4818;50.860;4.648;2023-06-22T06:17:50;11.73;;;7.50;;
9559;SDS011;4818;50.860;4.648;2023-06-22T06:20:20;11.82;;;7.35;;
9559;SDS011;4818;50.860;4.648;2023-06-22T06:22:47;11.98;;;7.45;;
9559;SDS011;4818;50.860;4.648;2023-06-22T06:25:13;10.77;;;8.63;;
9559;SDS011;4818;50.860;4.648;2023-06-22T06:27:43;11.95;;;8.32;;
9559;SDS011;4818;50.860;4.648;2023-06-22T06:30:10;14.63;;;9.68;;
9559;SDS011;4818;50.860;4.648;2023-06-22T06:32:36;16.60;;;8.50;;
9559;SDS011;4818;50.860;4.648;2023-06-22T06:35:04;11.15;;;9.27;;
9559;SDS011;4818;50.860;4.648;2023-06-22T06:37:31;10.07;;;8.02;;
9559;SDS011;4818;50.860;4.648;2023-06-22T06:39:57;13.45;;;10.02;;
9559;SDS011;4818;50.860;4.648;2023-06-22T06:42:23;16.83;;;8.75;;
9559;SDS011;4818;50.860;4.648;2023-06-22T06:44:49;13.00;;;8.68;;
9559;SDS011;4818;50.860;4.648;2023-06-22T06:47:15;13.52;;;8.57;;
9559;SDS011;4818;50.860;4.648;2023-06-22T06:49:42;12.43;;;9.27;;
9559;SDS011;4818;50.860;4.648;2023-06-22T06:52:08;15.32;;;8.90;;
9559;SDS011;4818;50.860;4.648;2023-06-22T06:54:34;10.48;;;8.38;;
9559;SDS011;4818;50.860;4.648;2023-06-22T06:57:01;12.63;;;8.95;;
9559;SDS011;4818;50.860;4.648;2023-06-22T06:59:28;17.17;;;9.18;;
9559;SDS011;4818;50.860;4.648;2023-06-22T07:01:55;13.90;;;9.85;;
9559;SDS011;4818;50.860;4.648;2023-06-22T07:04:21;12.25;;;9.98;;
9559;SDS011;4818;50.860;4.648;2023-06-22T07:06:47;16.73;;;10.15;;
9559;SDS011;4818;50.860;4.648;2023-06-22T07:09:13;16.52;;;10.05;;
9559;SDS011;4818;50.860;4.648;2023-06-22T07:11:39;18.55;;;9.77;;
9559;SDS011;4818;50.860;4.648;2023-06-22T07:14:06;16.90;;;9.68;;
9559;SDS011;4818;50.860;4.648;2023-06-22T07:16:32;12.55;;;8.63;;
9559;SDS011;4818;50.860;4.648;2023-06-22T07:18:58;10.60;;;8.18;;
9559;SDS011;4818;50.860;4.648;2023-06-22T07:21:24;11.75;;;8.07;;
9559;SDS011;4818;50.860;4.648;2023-06-22T07:23:50;11.73;;;8.55;;
9559;SDS011;4818;50.860;4.648;2023-06-22T07:26:16;11.85;;;7.70;;
9559;SDS011;4818;50.860;4.648;2023-06-22T07:28:42;13.35;;;8.68;;
9559;SDS011;4818;50.860;4.648;2023-06-22T07:31:08;11.30;;;8.30;;
9559;SDS011;4818;50.860;4.648;2023-06-22T07:33:34;10.40;;;7.70;;
9559;SDS011;4818;50.860;4.648;2023-06-22T07:36:01;9.95;;;7.63;;
9559;SDS011;4818;50.860;4.648;2023-06-22T07:38:32;9.27;;;7.50;;
9559;SDS011;4818;50.860;4.648;2023-06-22T07:40:58;11.45;;;6.60;;
9559;SDS011;4818;50.860;4.648;2023-06-22T07:43:25;8.82;;;6.07;;
9559;SDS011;4818;50.860;4.648;2023-06-22T07:45:51;11.35;;;6.68;;
9559;SDS011;4818;50.860;4.648;2023-06-22T07:48:19;11.50;;;7.60;;
9559;SDS011;4818;50.860;4.648;2023-06-22T07:50:46;9.20;;;6.37;;
9559;SDS011;4818;50.860;4.648;2023-06-22T07:53:12;9.23;;;6.15;;
9559;SDS011;4818;50.860;4.648;2023-06-22T07:55:38;9.80;;;6.03;;
9559;SDS011;4818;50.860;4.648;2023-06-22T07:58:04;8.25;;;6.20;;
9559;SDS011;4818;50.860;4.648;2023-06-22T08:00:30;10.38;;;6.05;;
9559;SDS011;4818;50.860;4.648;2023-06-22T08:02:58;9.85;;;6.35;;
9559;SDS011;4818;50.860;4.648;2023-06-22T08:05:24;8.10;;;5.90;;
9559;SDS011;4818;50.860;4.648;2023-06-22T08:07:51;5.57;;;4.72;;
9559;SDS011;4818;50.860;4.648;2023-06-22T08:10:18;9.05;;;5.18;;
9559;SDS011;4818;50.860;4.648;2023-06-22T08:12:44;6.25;;;4.43;;
9559;SDS011;4818;50.860;4.648;2023-06-22T08:15:11;10.10;;;5.45;;
9559;SDS011;4818;50.860;4.648;2023-06-22T08:17:37;11.23;;;6.95;;
9559;SDS011;4818;50.860;4.648;2023-06-22T08:20:04;7.53;;;5.32;;
9559;SDS011;4818;50.860;4.648;2023-06-22T08:22:39;7.88;;;6.18;;
9559;SDS011;4818;50.860;4.648;2023-06-22T08:25:06;7.90;;;6.20;;
9559;SDS011;4818;50.860;4.648;2023-06-22T08:27:32;6.60;;;4.93;;
9559;SDS011;4818;50.860;4.648;2023-06-22T08:29:59;7.00;;;5.75;;
9559;SDS011;4818;50.860;4.648;2023-06-22T08:32:25;9.00;;;6.55;;
9559;SDS011;4818;50.860;4.648;2023-06-22T08:34:52;13.77;;;6.25;;
9559;SDS011;4818;50.860;4.648;2023-06-22T08:37:19;9.40;;;5.65;;
9559;SDS011;4818;50.860;4.648;2023-06-22T08:39:45;9.02;;;6.47;;
9559;SDS011;4818;50.860;4.648;2023-06-22T08:42:11;7.97;;;5.00;;
9559;SDS011;4818;50.860;4.648;2023-06-22T08:44:38;9.82;;;4.95;;
9559;SDS011;4818;50.860;4.648;2023-06-22T08:47:04;5.28;;;4.57;;
9559;SDS011;4818;50.860;4.648;2023-06-22T08:49:30;6.55;;;4.85;;
9559;SDS011;4818;50.860;4.648;2023-06-22T08:51:56;5.15;;;3.72;;
9559;SDS011;4818;50.860;4.648;2023-06-22T08:54:22;6.13;;;4.20;;
9559;SDS011;4818;50.860;4.648;2023-06-22T08:56:48;5.63;;;4.32;;
9559;SDS011;4818;50.860;4.648;2023-06-22T08:59:15;6.32;;;3.65;;
9559;SDS011;4818;50.860;4.648;2023-06-22T09:01:41;4.95;;;3.42;;
9559;SDS011;4818;50.860;4.648;2023-06-22T09:04:10;13.52;;;4.32;;
9559;SDS011;4818;50.860;4.648;2023-06-22T09:06:37;8.27;;;4.35;;
9559;SDS011;4818;50.860;4.648;2023-06-22T09:09:09;5.82;;;4.38;;
9559;SDS011;4818;50.860;4.648;2023-06-22T09:11:35;8.13;;;4.85;;
9559;SDS011;4818;50.860;4.648;2023-06-22T09:14:01;7.75;;;5.78;;
9559;SDS011;4818;50.860;4.648;2023-06-22T09:16:28;9.85;;;5.50;;
9559;SDS011;4818;50.860;4.648;2023-06-22T09:18:55;8.82;;;5.47;;
9559;SDS011;4818;50.860;4.648;2023-06-22T09:21:21;9.85;;;6.40;;
9559;SDS011;4818;50.860;4.648;2023-06-22T09:23:47;13.25;;;6.10;;
9559;SDS011;4818;50.860;4.648;2023-06-22T09:26:16;7.65;;;6.05;;
9559;SDS011;4818;50.860;4.648;2023-06-22T09:28:43;19.92;;;8.35;;
9559;SDS011;4818;50.860;4.648;2023-06-22T09:31:09;7.95;;;6.18;;
9559;SDS011;4818;50.860;4.648;2023-06-22T09:33:35;7.53;;;5.22;;
9559;SDS011;4818;50.860;4.648;2023-06-22T09:36:03;9.20;;;5.75;;
9559;SDS011;4818;50.860;4.648;2023-06-22T09:38:30;7.25;;;5.70;;
9559;SDS011;4818;50.860;4.648;2023-06-22T09:40:56;10.30;;;6.40;;
9559;SDS011;4818;50.860;4.648;2023-06-22T09:43:22;15.48;;;7.10;;
9559;SDS011;4818;50.860;4.648;2023-06-22T09:45:48;13.85;;;6.90;;
9559;SDS011;4818;50.860;4.648;2023-06-22T09:48:14;12.80;;;7.38;;
9559;SDS011;4818;50.860;4.648;2023-06-22T09:50:40;14.52;;;9.05;;
9559;SDS011;4818;50.860;4.648;2023-06-22T09:53:08;18.90;;;10.52;;
9559;SDS011;4818;50.860;4.648;2023-06-22T09:55:34;22.70;;;11.15;;
9559;SDS011;4818;50.860;4.648;2023-06-22T09:58:00;26.75;;;12.18;;
9559;SDS011;4818;50.860;4.648;2023-06-22T10:00:26;22.30;;;11.45;;
9559;SDS011;4818;50.860;4.648;2023-06-22T10:02:53;19.90;;;11.30;;
9559;SDS011;4818;50.860;4.648;2023-06-22T10:05:21;16.77;;;10.57;;
9559;SDS011;4818;50.860;4.648;2023-06-22T10:07:47;23.48;;;13.32;;
9559;SDS011;4818;50.860;4.648;2023-06-22T10:10:13;26.08;;;13.70;;
9559;SDS011;4818;50.860;4.648;2023-06-22T10:12:47;20.45;;;14.27;;
9559;SDS011;4818;50.860;4.648;2023-06-22T10:15:13;23.77;;;14.00;;
9559;SDS011;4818;50.860;4.648;2023-06-22T10:17:40;30.65;;;15.38;;
9559;SDS011;4818;50.860;4.648;2023-06-22T10:20:06;26.50;;;14.45;;
9559;SDS011;4818;50.860;4.648;2023-06-22T10:22:40;32.40;;;15.98;;
9559;SDS011;4818;50.860;4.648;2023-06-22T10:25:07;22.58;;;14.13;;
9559;SDS011;4818;50.860;4.648;2023-06-22T10:27:33;22.58;;;14.40;;
9559;SDS011;4818;50.860;4.648;2023-06-22T10:29:59;21.45;;;15.52;;
9559;SDS011;4818;50.860;4.648;2023-06-22T10:32:26;24.52;;;16.08;;
9559;SDS011;4818;50.860;4.648;2023-06-22T10:34:53;26.27;;;16.30;;
9559;SDS011;4818;50.860;4.648;2023-06-22T10:37:20;28.48;;;16.08;;
9559;SDS011;4818;50.860;4.648;2023-06-22T10:39:46;19.67;;;13.80;;
9559;SDS011;4818;50.860;4.648;2023-06-22T10:42:12;21.42;;;15.43;;
9559;SDS011;4818;50.860;4.648;2023-06-22T10:44:39;21.20;;;16.20;;
9559;SDS011;4818;50.860;4.648;2023-06-22T10:47:06;20.30;;;15.43;;
9559;SDS011;4818;50.860;4.648;2023-06-22T10:49:32;26.02;;;17.42;;
9559;SDS011;4818;50.860;4.648;2023-06-22T10:51:59;23.30;;;16.88;;
9559;SDS011;4818;50.860;4.648;2023-06-22T10:54:25;23.08;;;15.40;;
9559;SDS011;4818;50.860;4.648;2023-06-22T10:56:51;24.48;;;16.98;;
9559;SDS011;4818;50.860;4.648;2023-06-22T10:59:17;22.42;;;15.70;;
9559;SDS011;4818;50.860;4.648;2023-06-22T11:01:45;21.13;;;16.45;;
9559;SDS011;4818;50.860;4.648;2023-06-22T11:04:12;21.67;;;17.33;;
9559;SDS011;4818;50.860;4.648;2023-06-22T11:06:39;26.50;;;17.30;;
9559;SDS011;4818;50.860;4.648;2023-06-22T11:09:06;25.63;;;18.05;;
9559;SDS011;4818;50.860;4.648;2023-06-22T11:11:32;25.75;;;18.15;;
9559;SDS011;4818;50.860;4.648;2023-06-22T11:13:58;34.80;;;20.58;;
9559;SDS011;4818;50.860;4.648;2023-06-22T11:16:25;31.88;;;19.55;;
9559;SDS011;4818;50.860;4.648;2023-06-22T11:18:51;30.48;;;22.05;;
9559;SDS011;4818;50.860;4.648;2023-06-22T11:21:17;28.80;;;21.30;;
9559;SDS011;4818;50.860;4.648;2023-06-22T11:23:43;33.58;;;22.90;;
9559;SDS011;4818;50.860;4.648;2023-06-22T11:26:09;35.80;;;25.20;;
9559;SDS011;4818;50.860;4.648;2023-06-22T11:28:36;41.08;;;26.02;;
9559;SDS011;4818;50.860;4.648;2023-06-22T11:31:08;47.42;;;25.80;;
9559;SDS011;4818;50.860;4.648;2023-06-22T11:33:34;34.95;;;24.00;;
9559;SDS011;4818;50.860;4.648;2023-06-22T11:36:00;38.60;;;27.02;;
9559;SDS011;4818;50.860;4.648;2023-06-22T11:38:26;41.92;;;28.13;;
9559;SDS011;4818;50.860;4.648;2023-06-22T11:40:53;34.38;;;26.48;;
9559;SDS011;4818;50.860;4.648;2023-06-22T11:43:19;38.08;;;27.23;;
9559;SDS011;4818;50.860;4.648;2023-06-22T11:45:45;38.17;;;26.20;;
9559;SDS011;4818;50.860;4.648;2023-06-22T11:48:11;41.03;;;26.98;;
9559;SDS011;4818;50.860;4.648;2023-06-22T11:50:38;44.33;;;28.45;;
9559;SDS011;4818;50.860;4.648;2023-06-22T11:53:04;43.30;;;31.13;;
9559;SDS011;4818;50.860;4.648;2023-06-22T11:55:30;44.10;;;32.58;;
9559;SDS011;4818;50.860;4.648;2023-06-22T11:57:56;46.47;;;32.70;;
9559;SDS011;4818;50.860;4.648;2023-06-22T12:00:28;53.05;;;33.53;;
9559;SDS011;4818;50.860;4.648;2023-06-22T12:02:55;45.92;;;32.85;;
9559;SDS011;4818;50.860;4.648;2023-06-22T12:05:21;54.50;;;36.42;;
9559;SDS011;4818;50.860;4.648;2023-06-22T12:07:48;50.97;;;34.00;;
9559;SDS011;4818;50.860;4.648;2023-06-22T12:10:14;47.88;;;35.10;;
9559;SDS011;4818;50.860;4.648;2023-06-22T12:12:42;56.65;;;38.05;;
9559;SDS011;4818;50.860;4.648;2023-06-22T12:15:11;52.08;;;37.08;;
9559;SDS011;4818;50.860;4.648;2023-06-22T12:17:41;50.88;;;35.65;;
9559;SDS011;4818;50.860;4.648;2023-06-22T12:20:07;48.55;;;34.05;;
9559;SDS011;4818;50.860;4.648;2023-06-22T12:22:34;52.35;;;32.72;;
9559;SDS011;4818;50.860;4.648;2023-06-22T12:25:01;47.70;;;32.65;;
9559;SDS011;4818;50.860;4.648;2023-06-22T12:27:27;51.42;;;33.35;;
9559;SDS011;4818;50.860;4.648;2023-06-22T12:29:55;49.63;;;32.42;;
9559;SDS011;4818;50.860;4.648;2023-06-22T12:32:21;47.35;;;32.28;;
9559;SDS011;4818;50.860;4.648;2023-06-22T12:34:48;51.75;;;33.55;;
9559;SDS011;4818;50.860;4.648;2023-06-22T12:37:14;51.47;;;34.40;;
9559;SDS011;4818;50.860;4.648;2023-06-22T12:39:40;49.65;;;33.35;;
9559;SDS011;4818;50.860;4.648;2023-06-22T12:42:07;55.55;;;35.22;;
9559;SDS011;4818;50.860;4.648;2023-06-22T12:44:34;46.72;;;33.28;;
9559;SDS011;4818;50.860;4.648;2023-06-22T12:47:00;53.47;;;33.83;;
9559;SDS011;4818;50.860;4.648;2023-06-22T12:49:27;50.15;;;34.10;;
9559;SDS011;4818;50.860;4.648;2023-06-22T12:51:53;53.97;;;36.35;;
9559;SDS011;4818;50.860;4.648;2023-06-22T12:54:19;52.83;;;33.72;;
9559;SDS011;4818;50.860;4.648;2023-06-22T12:56:45;46.65;;;33.20;;
9559;SDS011;4818;50.860;4.648;2023-06-22T12:59:12;46.83;;;32.63;;
9559;SDS011;4818;50.860;4.648;2023-06-22T13:01:38;47.80;;;33.65;;
9559;SDS011;4818;50.860;4.648;2023-06-22T13:04:04;47.00;;;33.35;;
9559;SDS011;4818;50.860;4.648;2023-06-22T13:06:31;52.13;;;34.72;;
9559;SDS011;4818;50.860;4.648;2023-06-22T13:08:57;52.15;;;34.78;;
9559;SDS011;4818;50.860;4.648;2023-06-22T13:11:23;47.13;;;33.72;;
9559;SDS011;4818;50.860;4.648;2023-06-22T13:13:49;49.72;;;33.78;;
9559;SDS011;4818;50.860;4.648;2023-06-22T13:16:16;55.95;;;35.75;;
9559;SDS011;4818;50.860;4.648;2023-06-22T13:18:42;47.65;;;33.67;;
9559;SDS011;4818;50.860;4.648;2023-06-22T13:21:08;50.95;;;35.70;;
9559;SDS011;4818;50.860;4.648;2023-06-22T13:23:34;53.33;;;36.72;;
9559;SDS011;4818;50.860;4.648;2023-06-22T13:26:02;57.28;;;39.15;;
9559;SDS011;4818;50.860;4.648;2023-06-22T13:28:28;55.60;;;39.60;;
9559;SDS011;4818;50.860;4.648;2023-06-22T13:30:55;58.08;;;39.05;;
9559;SDS011;4818;50.860;4.648;2023-06-22T13:33:21;58.53;;;38.42;;
9559;SDS011;4818;50.860;4.648;2023-06-22T13:35:49;69.68;;;43.92;;
9559;SDS011;4818;50.860;4.648;2023-06-22T13:38:15;62.85;;;40.58;;
9559;SDS011;4818;50.860;4.648;2023-06-22T13:40:45;65.82;;;41.92;;
9559;SDS011;4818;50.860;4.648;2023-06-22T13:43:13;66.35;;;43.15;;
9559;SDS011;4818;50.860;4.648;2023-06-22T13:45:39;59.83;;;41.15;;
9559;SDS011;4818;50.860;4.648;2023-06-22T13:48:09;58.38;;;40.75;;
9559;SDS011;4818;50.860;4.648;2023-06-22T13:50:35;61.20;;;40.83;;
9559;SDS011;4818;50.860;4.648;2023-06-22T13:53:02;60.00;;;40.63;;
9559;SDS011;4818;50.860;4.648;2023-06-22T13:55:28;55.97;;;40.40;;
9559;SDS011;4818;50.860;4.648;2023-06-22T13:57:56;64.55;;;41.55;;
9559;SDS011;4818;50.860;4.648;2023-06-22T14:00:22;74.00;;;44.60;;
9559;SDS011;4818;50.860;4.648;2023-06-22T14:02:48;60.67;;;42.65;;
9559;SDS011;4818;50.860;4.648;2023-06-22T14:05:14;64.43;;;41.22;;
9559;SDS011;4818;50.860;4.648;2023-06-22T14:07:41;68.03;;;42.78;;
9559;SDS011;4818;50.860;4.648;2023-06-22T14:10:07;63.38;;;43.40;;
9559;SDS011;4818;50.860;4.648;2023-06-22T14:12:33;64.78;;;42.10;;
9559;SDS011;4818;50.860;4.648;2023-06-22T14:15:00;61.85;;;43.28;;
9559;SDS011;4818;50.860;4.648;2023-06-22T14:17:26;68.93;;;42.10;;
9559;SDS011;4818;50.860;4.648;2023-06-22T14:19:52;60.28;;;40.40;;
9559;SDS011;4818;50.860;4.648;2023-06-22T14:22:19;57.95;;;40.03;;
9559;SDS011;4818;50.860;4.648;2023-06-22T14:24:45;58.13;;;40.55;;
9559;SDS011;4818;50.860;4.648;2023-06-22T14:27:12;60.70;;;41.80;;
9559;SDS011;4818;50.860;4.648;2023-06-22T14:29:38;58.17;;;40.72;;
9559;SDS011;4818;50.860;4.648;2023-06-22T14:32:04;62.30;;;42.13;;
9559;SDS011;4818;50.860;4.648;2023-06-22T14:34:31;61.03;;;41.92;;
9559;SDS011;4818;50.860;4.648;2023-06-22T14:37:01;59.88;;;42.38;;
9559;SDS011;4818;50.860;4.648;2023-06-22T14:39:27;57.78;;;39.92;;
9559;SDS011;4818;50.860;4.648;2023-06-22T14:41:53;58.47;;;40.28;;
9559;SDS011;4818;50.860;4.648;2023-06-22T14:44:20;61.70;;;41.67;;
9559;SDS011;4818;50.860;4.648;2023-06-22T14:46:46;58.40;;;40.83;;
9559;SDS011;4818;50.860;4.648;2023-06-22T14:49:13;64.35;;;42.92;;
9559;SDS011;4818;50.860;4.648;2023-06-22T14:51:39;63.83;;;41.80;;
9559;SDS011;4818;50.860;4.648;2023-06-22T14:54:05;69.75;;;46.65;;
9559;SDS011;4818;50.860;4.648;2023-06-22T14:56:31;62.45;;;41.60;;
9559;SDS011;4818;50.860;4.648;2023-06-22T14:58:57;63.35;;;43.80;;
9559;SDS011;4818;50.860;4.648;2023-06-22T15:01:24;60.85;;;42.35;;
9559;SDS011;4818;50.860;4.648;2023-06-22T15:03:52;65.22;;;44.92;;
9559;SDS011;4818;50.860;4.648;2023-06-22T15:06:19;66.93;;;44.53;;